FBU85G NTAA-KSFO
Flight info
| Callsign | FBU85G |
|---|---|
| Flight time | N/A |
| Altitude | 39000 |
| Route | IKELO4W IKELO DCT ROBKO G575 RUTAK/N0495F380 DCT MIMAS/N0491F390 DCT MAEVA DCT CRONN DCT 15N136W/N0485F410 20N135W DCT AFONE DCT FLITY DCT ADUMM DCT CINNY PIRAT3 |
| Aircraft | A359/H-SDE2E3GHIJ1J3J4J5LM1ORWXY/LB1D1 |
Departure
| Time | 2026-05-08 17:17 |
|---|---|
| Airport | Fa'a'ā International Airport (NTAA) |
Arrival
| Time | N/A |
|---|---|
| Airport | San Francisco International Airport (KSFO) |
| Time | Latitude | Longitude | Altitude | Speed | Heading |
|---|---|---|---|---|---|
| 2026-05-08 16:16 | -17.55885 | -149.61053 | 28 ft | 0 kts | 114° |
| 2026-05-08 17:06 | -17.55884 | -149.61055 | 28 ft | 2 kts | 114° |
| 2026-05-08 17:06 | -17.55872 | -149.61079 | 26 ft | 4 kts | 126° |
| 2026-05-08 17:06 | -17.55857 | -149.61095 | 25 ft | 2 kts | 144° |
| 2026-05-08 17:06 | -17.55842 | -149.61113 | 25 ft | 4 kts | 89° |
| 2026-05-08 17:07 | -17.55850 | -149.61137 | 27 ft | 3 kts | 54° |
| 2026-05-08 17:07 | -17.55841 | -149.61124 | 26 ft | 1 kts | 54° |
| 2026-05-08 17:10 | -17.55825 | -149.61100 | 28 ft | 6 kts | 54° |
| 2026-05-08 17:10 | -17.55792 | -149.61077 | 28 ft | 6 kts | 16° |
| 2026-05-08 17:11 | -17.55750 | -149.61085 | 27 ft | 7 kts | 338° |
| 2026-05-08 17:11 | -17.55704 | -149.61114 | 27 ft | 9 kts | 324° |
| 2026-05-08 17:11 | -17.55677 | -149.61156 | 26 ft | 6 kts | 270° |
| 2026-05-08 17:11 | -17.55699 | -149.61199 | 26 ft | 8 kts | 235° |
| 2026-05-08 17:12 | -17.55732 | -149.61250 | 32 ft | 9 kts | 235° |
| 2026-05-08 17:12 | -17.55775 | -149.61312 | 30 ft | 11 kts | 232° |
| 2026-05-08 17:12 | -17.55825 | -149.61383 | 29 ft | 13 kts | 234° |
| 2026-05-08 17:12 | -17.55876 | -149.61458 | 26 ft | 13 kts | 234° |
| 2026-05-08 17:13 | -17.55929 | -149.61535 | 27 ft | 13 kts | 234° |
| 2026-05-08 17:13 | -17.55986 | -149.61618 | 27 ft | 14 kts | 234° |
| 2026-05-08 17:13 | -17.56046 | -149.61704 | 28 ft | 15 kts | 234° |
| 2026-05-08 17:13 | -17.56106 | -149.61792 | 29 ft | 15 kts | 234° |
| 2026-05-08 17:14 | -17.56170 | -149.61885 | 28 ft | 17 kts | 234° |
| 2026-05-08 17:14 | -17.56211 | -149.61957 | 28 ft | 8 kts | 256° |
| 2026-05-08 17:14 | -17.56220 | -149.62011 | 29 ft | 5 kts | 247° |
| 2026-05-08 17:14 | -17.56237 | -149.62016 | 29 ft | 2 kts | 168° |
| 2026-05-08 17:15 | -17.56243 | -149.61993 | 29 ft | 5 kts | 90° |
| 2026-05-08 17:15 | -17.56227 | -149.61968 | 28 ft | 0 kts | 54° |
| 2026-05-08 17:15 | -17.56226 | -149.61966 | 28 ft | 3 kts | 54° |
| 2026-05-08 17:16 | -17.56121 | -149.61815 | 29 ft | 56 kts | 54° |
| 2026-05-08 17:16 | -17.55778 | -149.61315 | 30 ft | 111 kts | 54° |
| 2026-05-08 17:16 | -17.55228 | -149.60517 | 36 ft | 157 kts | 54° |
| 2026-05-08 17:16 | -17.54555 | -149.59577 | 458 ft | 161 kts | 54° |
| 2026-05-08 17:17 | -17.53865 | -149.58674 | 1010 ft | 157 kts | 58° |
| 2026-05-08 17:17 | -17.53176 | -149.57789 | 1566 ft | 157 kts | 58° |
| 2026-05-08 17:17 | -17.52418 | -149.56929 | 1866 ft | 165 kts | 50° |
| 2026-05-08 17:17 | -17.51431 | -149.56184 | 2020 ft | 183 kts | 39° |
| 2026-05-08 17:18 | -17.50282 | -149.55485 | 2163 ft | 199 kts | 36° |
| 2026-05-08 17:18 | -17.49005 | -149.54786 | 2330 ft | 215 kts | 32° |
| 2026-05-08 17:18 | -17.47596 | -149.54077 | 2479 ft | 235 kts | 31° |
| 2026-05-08 17:18 | -17.46069 | -149.53333 | 2727 ft | 248 kts | 30° |
| 2026-05-08 17:19 | -17.44467 | -149.52567 | 3064 ft | 257 kts | 30° |
| 2026-05-08 17:19 | -17.42823 | -149.51783 | 3532 ft | 261 kts | 29° |
| 2026-05-08 17:19 | -17.41161 | -149.50985 | 4049 ft | 263 kts | 30° |
| 2026-05-08 17:19 | -17.39491 | -149.50169 | 4568 ft | 267 kts | 31° |
| 2026-05-08 17:20 | -17.37802 | -149.49322 | 5064 ft | 272 kts | 28° |
| 2026-05-08 17:20 | -17.36075 | -149.48498 | 5684 ft | 272 kts | 25° |
| 2026-05-08 17:20 | -17.34336 | -149.47683 | 6207 ft | 276 kts | 28° |
| 2026-05-08 17:20 | -17.32584 | -149.46828 | 6658 ft | 279 kts | 28° |
| 2026-05-08 17:21 | -17.30837 | -149.45951 | 7183 ft | 279 kts | 30° |
| 2026-05-08 17:21 | -17.29679 | -149.45362 | 7490 ft | 280 kts | 31° |
| 2026-05-08 17:21 | -17.27915 | -149.44468 | 8000 ft | 283 kts | 31° |
| 2026-05-08 17:21 | -17.26131 | -149.43569 | 8537 ft | 287 kts | 31° |
| 2026-05-08 17:22 | -17.23733 | -149.42363 | 9263 ft | 291 kts | 28° |
| 2026-05-08 17:22 | -17.21897 | -149.41451 | 9778 ft | 293 kts | 28° |
| 2026-05-08 17:22 | -17.20647 | -149.40831 | 10093 ft | 295 kts | 29° |
| 2026-05-08 17:22 | -17.18762 | -149.39898 | 10312 ft | 306 kts | 28° |
| 2026-05-08 17:23 | -17.16802 | -149.38927 | 10504 ft | 318 kts | 27° |
| 2026-05-08 17:23 | -17.14765 | -149.37921 | 10686 ft | 329 kts | 27° |
| 2026-05-08 17:23 | -17.12656 | -149.36880 | 10856 ft | 341 kts | 28° |
| 2026-05-08 17:23 | -17.10478 | -149.35807 | 11028 ft | 351 kts | 28° |
| 2026-05-08 17:24 | -17.08238 | -149.34699 | 11185 ft | 362 kts | 28° |
| 2026-05-08 17:24 | -17.05936 | -149.33559 | 11383 ft | 370 kts | 28° |
| 2026-05-08 17:24 | -17.03594 | -149.32402 | 11659 ft | 375 kts | 27° |
| 2026-05-08 17:24 | -17.01259 | -149.31249 | 11996 ft | 378 kts | 27° |
| 2026-05-08 17:25 | -16.98878 | -149.30072 | 12350 ft | 380 kts | 27° |
| 2026-05-08 17:25 | -16.96485 | -149.28890 | 12720 ft | 382 kts | 27° |
| 2026-05-08 17:25 | -16.94074 | -149.27702 | 13074 ft | 384 kts | 27° |
| 2026-05-08 17:25 | -16.91650 | -149.26508 | 13413 ft | 387 kts | 27° |
| 2026-05-08 17:26 | -16.89207 | -149.25302 | 13771 ft | 389 kts | 27° |
| 2026-05-08 17:26 | -16.86761 | -149.24095 | 14153 ft | 389 kts | 27° |
| 2026-05-08 17:26 | -16.84303 | -149.22884 | 14440 ft | 392 kts | 27° |
| 2026-05-08 17:26 | -16.81827 | -149.21664 | 14720 ft | 395 kts | 27° |
| 2026-05-08 17:27 | -16.79404 | -149.20308 | 15022 ft | 396 kts | 31° |
| 2026-05-08 17:27 | -16.77014 | -149.18873 | 15316 ft | 398 kts | 32° |
| 2026-05-08 17:27 | -16.74627 | -149.17396 | 15598 ft | 400 kts | 32° |
| 2026-05-08 17:27 | -16.72239 | -149.15892 | 15909 ft | 402 kts | 33° |
| 2026-05-08 17:28 | -16.69844 | -149.14372 | 16220 ft | 404 kts | 32° |
| 2026-05-08 17:28 | -16.67440 | -149.12846 | 16515 ft | 406 kts | 33° |
| 2026-05-08 17:28 | -16.65015 | -149.11310 | 16792 ft | 409 kts | 32° |
| 2026-05-08 17:28 | -16.62580 | -149.09770 | 17091 ft | 410 kts | 33° |
| 2026-05-08 17:29 | -16.60133 | -149.08227 | 17385 ft | 412 kts | 32° |
| 2026-05-08 17:29 | -16.57669 | -149.06676 | 17649 ft | 415 kts | 33° |
| 2026-05-08 17:29 | -16.55190 | -149.05115 | 17944 ft | 417 kts | 32° |
| 2026-05-08 17:29 | -16.52703 | -149.03551 | 18250 ft | 418 kts | 33° |
| 2026-05-08 17:30 | -16.50201 | -149.01978 | 18463 ft | 422 kts | 32° |
| 2026-05-08 17:30 | -16.47683 | -149.00395 | 18681 ft | 424 kts | 32° |
| 2026-05-08 17:30 | -16.45156 | -148.98807 | 18953 ft | 425 kts | 32° |
| 2026-05-08 17:30 | -16.42620 | -148.97214 | 19180 ft | 427 kts | 32° |
| 2026-05-08 17:31 | -16.40070 | -148.95613 | 19385 ft | 429 kts | 32° |
| 2026-05-08 17:31 | -16.37511 | -148.94005 | 19654 ft | 430 kts | 32° |
| 2026-05-08 17:31 | -16.34947 | -148.92395 | 19883 ft | 431 kts | 32° |
| 2026-05-08 17:31 | -16.32368 | -148.90778 | 20052 ft | 435 kts | 32° |
| 2026-05-08 17:32 | -16.29812 | -148.89173 | 20307 ft | 435 kts | 32° |
| 2026-05-08 17:32 | -16.27222 | -148.87548 | 20572 ft | 436 kts | 32° |
| 2026-05-08 17:32 | -16.24615 | -148.85914 | 20743 ft | 439 kts | 32° |
| 2026-05-08 17:32 | -16.21997 | -148.84274 | 20964 ft | 440 kts | 32° |
| 2026-05-08 17:33 | -16.19381 | -148.82635 | 21278 ft | 438 kts | 32° |
| 2026-05-08 17:33 | -16.16759 | -148.80993 | 21449 ft | 442 kts | 32° |
| 2026-05-08 17:33 | -16.14119 | -148.79341 | 21648 ft | 443 kts | 31° |
| 2026-05-08 17:33 | -16.11476 | -148.77685 | 21919 ft | 443 kts | 31° |
| 2026-05-08 17:34 | -16.08829 | -148.76029 | 22098 ft | 446 kts | 31° |
| 2026-05-08 17:34 | -16.06165 | -148.74363 | 22263 ft | 447 kts | 31° |
| 2026-05-08 17:34 | -16.03497 | -148.72694 | 22534 ft | 447 kts | 31° |
| 2026-05-08 17:34 | -16.00824 | -148.71023 | 22697 ft | 449 kts | 31° |
| 2026-05-08 17:35 | -15.98138 | -148.69345 | 22855 ft | 452 kts | 31° |
| 2026-05-08 17:35 | -15.95443 | -148.67661 | 23110 ft | 451 kts | 31° |
| 2026-05-08 17:35 | -15.92747 | -148.65977 | 23281 ft | 453 kts | 31° |
| 2026-05-08 17:35 | -15.90034 | -148.64283 | 23426 ft | 456 kts | 31° |
| 2026-05-08 17:36 | -15.87314 | -148.62585 | 23674 ft | 456 kts | 31° |
| 2026-05-08 17:36 | -15.84596 | -148.60889 | 23850 ft | 456 kts | 30° |
| 2026-05-08 17:36 | -15.81868 | -148.59187 | 23943 ft | 459 kts | 30° |
| 2026-05-08 17:36 | -15.79130 | -148.57479 | 24154 ft | 458 kts | 30° |
| 2026-05-08 17:37 | -15.76391 | -148.55771 | 24303 ft | 460 kts | 30° |
| 2026-05-08 17:37 | -15.73641 | -148.54057 | 24416 ft | 462 kts | 30° |
| 2026-05-08 17:37 | -15.70885 | -148.52339 | 24612 ft | 461 kts | 30° |
| 2026-05-08 17:37 | -15.68131 | -148.50623 | 24774 ft | 463 kts | 30° |
| 2026-05-08 17:38 | -15.65364 | -148.48900 | 24878 ft | 465 kts | 30° |
| 2026-05-08 17:38 | -15.62592 | -148.47175 | 25068 ft | 465 kts | 30° |
| 2026-05-08 17:38 | -15.59817 | -148.45448 | 25191 ft | 466 kts | 30° |
| 2026-05-08 17:38 | -15.57022 | -148.43711 | 25275 ft | 469 kts | 30° |
| 2026-05-08 17:39 | -15.54227 | -148.41972 | 25491 ft | 468 kts | 30° |
| 2026-05-08 17:39 | -15.51433 | -148.40235 | 25627 ft | 469 kts | 30° |
| 2026-05-08 17:39 | -15.48625 | -148.38489 | 25722 ft | 472 kts | 30° |
| 2026-05-08 17:39 | -15.45810 | -148.36740 | 25941 ft | 470 kts | 30° |
| 2026-05-08 17:40 | -15.43000 | -148.34995 | 26071 ft | 472 kts | 30° |
| 2026-05-08 17:40 | -15.40173 | -148.33240 | 26174 ft | 474 kts | 30° |
| 2026-05-08 17:40 | -15.37346 | -148.31485 | 26376 ft | 473 kts | 30° |
| 2026-05-08 17:40 | -15.34514 | -148.29727 | 26500 ft | 475 kts | 30° |
| 2026-05-08 17:41 | -15.31668 | -148.27962 | 26595 ft | 477 kts | 30° |
| 2026-05-08 17:41 | -15.28821 | -148.26196 | 26786 ft | 477 kts | 30° |
| 2026-05-08 17:41 | -15.25970 | -148.24428 | 26903 ft | 479 kts | 30° |
| 2026-05-08 17:41 | -15.23106 | -148.22654 | 27021 ft | 480 kts | 30° |
| 2026-05-08 17:42 | -15.20245 | -148.20881 | 27257 ft | 478 kts | 30° |
| 2026-05-08 17:42 | -15.17387 | -148.19112 | 27362 ft | 481 kts | 30° |
| 2026-05-08 17:42 | -15.14511 | -148.17331 | 27458 ft | 482 kts | 30° |
| 2026-05-08 17:42 | -15.11632 | -148.15549 | 27641 ft | 482 kts | 30° |
| 2026-05-08 17:43 | -15.08786 | -148.13788 | 27706 ft | 485 kts | 30° |
| 2026-05-08 17:43 | -15.05851 | -148.11972 | 27875 ft | 485 kts | 30° |
| 2026-05-08 17:43 | -15.02998 | -148.10207 | 28043 ft | 485 kts | 30° |
| 2026-05-08 17:43 | -15.00053 | -148.08387 | 28109 ft | 488 kts | 30° |
| 2026-05-08 17:44 | -14.97143 | -148.06588 | 28300 ft | 487 kts | 30° |
| 2026-05-08 17:44 | -14.94272 | -148.04814 | 28430 ft | 488 kts | 30° |
| 2026-05-08 17:44 | -14.88382 | -148.01178 | 28721 ft | 490 kts | 30° |
| 2026-05-08 17:45 | -14.85457 | -147.99372 | 28895 ft | 490 kts | 30° |
| 2026-05-08 17:45 | -14.82529 | -147.97566 | 29009 ft | 491 kts | 30° |
| 2026-05-08 17:45 | -14.79634 | -147.95780 | 29176 ft | 491 kts | 30° |
| 2026-05-08 17:45 | -14.76654 | -147.93943 | 29268 ft | 493 kts | 30° |
| 2026-05-08 17:46 | -14.73704 | -147.92125 | 29384 ft | 494 kts | 30° |
| 2026-05-08 17:46 | -14.70749 | -147.90304 | 29529 ft | 495 kts | 30° |
| 2026-05-08 17:46 | -14.64808 | -147.86645 | 29769 ft | 498 kts | 30° |
| 2026-05-08 17:47 | -14.61835 | -147.84815 | 29934 ft | 498 kts | 30° |
| 2026-05-08 17:47 | -14.58847 | -147.82976 | 29995 ft | 501 kts | 30° |
| 2026-05-08 17:47 | -14.55857 | -147.81137 | 30168 ft | 500 kts | 30° |
| 2026-05-08 17:47 | -14.53877 | -147.79919 | 30254 ft | 501 kts | 30° |
| 2026-05-08 17:48 | -14.49909 | -147.77480 | 30413 ft | 502 kts | 30° |
| 2026-05-08 17:48 | -14.46912 | -147.75638 | 30588 ft | 501 kts | 30° |
| 2026-05-08 17:48 | -14.40898 | -147.71942 | 30787 ft | 504 kts | 30° |
| 2026-05-08 17:49 | -14.37886 | -147.70092 | 30929 ft | 504 kts | 30° |
| 2026-05-08 17:49 | -14.34864 | -147.68237 | 31000 ft | 506 kts | 30° |
| 2026-05-08 17:49 | -14.31839 | -147.66381 | 31195 ft | 505 kts | 30° |
| 2026-05-08 17:49 | -14.28835 | -147.64550 | 31621 ft | 498 kts | 30° |
| 2026-05-08 17:50 | -14.25869 | -147.62783 | 32268 ft | 486 kts | 28° |
| 2026-05-08 17:50 | -14.22947 | -147.61137 | 33035 ft | 472 kts | 26° |
| 2026-05-08 17:50 | -14.20036 | -147.59651 | 33610 ft | 464 kts | 24° |
| 2026-05-08 17:50 | -14.17064 | -147.58339 | 33693 ft | 467 kts | 20° |
| 2026-05-08 17:51 | -14.13958 | -147.57224 | 33355 ft | 480 kts | 15° |
| 2026-05-08 17:51 | -14.10677 | -147.56343 | 32855 ft | 495 kts | 11° |
| 2026-05-08 17:51 | -14.07239 | -147.55738 | 32447 ft | 507 kts | 6° |
| 2026-05-08 17:51 | -14.03691 | -147.55425 | 32208 ft | 515 kts | 1° |
| 2026-05-08 17:52 | -13.96499 | -147.55599 | 32333 ft | 516 kts | 354° |
| 2026-05-08 17:52 | -13.89493 | -147.56630 | 33250 ft | 499 kts | 347° |
| 2026-05-08 17:53 | -13.86155 | -147.57439 | 33927 ft | 487 kts | 343° |
| 2026-05-08 17:53 | -13.82958 | -147.58472 | 34465 ft | 477 kts | 339° |
| 2026-05-08 17:53 | -13.79891 | -147.59755 | 34672 ft | 476 kts | 334° |
| 2026-05-08 17:53 | -13.76926 | -147.61324 | 34501 ft | 484 kts | 328° |
| 2026-05-08 17:54 | -13.75567 | -147.62179 | 34326 ft | 490 kts | 326° |